Time;durP1;ratioP1;P1;durP2;ratioP2;P2;SDS_P1;SDS_P2;PMS_P1;PMS_P2;Temp;Humidity;BMP_temperature;BMP_pressure;BME280_temperature;BME280_humidity;BME280_pressure;Samples;Min_cycle;Max_cycle;Signal;HPM_P1;HPM_P2
2024/01/27 00:01:26;;;;;;;24.67;3.93;;;;;;;;;;7325424;19;20434;-55
2024/01/27 00:03:56;;;;;;;23.53;3.33;;;;;;;;;;7345679;19;20423;-52
2024/01/27 00:06:25;;;;;;;31.70;4.50;;;;;;;;;;7324053;19;20422;-53
2024/01/27 00:08:55;;;;;;;21.37;3.50;;;;;;;;;;7345428;19;20451;-51
2024/01/27 00:11:24;;;;;;;22.33;4.20;;;;;;;;;;7325053;19;20502;-52
2024/01/27 00:13:56;;;;;;;19.33;2.87;;;;;;;;;;7346289;19;20448;-49
2024/01/27 00:16:28;;;;;;;25.93;3.37;;;;;;;;;;7323638;19;20513;-51
2024/01/27 00:18:57;;;;;;;27.90;4.10;;;;;;;;;;7347504;19;20516;-54
2024/01/27 00:21:27;;;;;;;26.93;6.07;;;;;;;;;;7326022;19;20444;-53
2024/01/27 00:24:00;;;;;;;31.07;4.87;;;;;;;;;;7348539;19;20437;-52
2024/01/27 00:26:30;;;;;;;19.57;3.23;;;;;;;;;;7325832;19;20443;-52
2024/01/27 00:28:59;;;;;;;12.73;2.90;;;;;;;;;;7348147;19;20426;-54
2024/01/27 00:31:31;;;;;;;25.87;4.60;;;;;;;;;;7326184;19;20433;-53
2024/01/27 00:34:01;;;;;;;26.33;5.63;;;;;;;;;;7346702;19;20436;-54
2024/01/27 00:36:30;;;;;;;26.27;5.03;;;;;;;;;;7325363;19;20586;-53
2024/01/27 00:39:00;;;;;;;36.40;6.67;;;;;;;;;;7347669;19;20450;-49
2024/01/27 00:41:29;;;;;;;38.07;5.87;;;;;;;;;;7325254;19;20538;-52
2024/01/27 00:43:59;;;;;;;20.17;3.23;;;;;;;;;;7347831;19;20435;-52
2024/01/27 00:46:28;;;;;;;17.40;3.17;;;;;;;;;;7324598;19;20430;-50
2024/01/27 00:49:00;;;;;;;23.33;3.93;;;;;;;;;;7347398;19;20459;-51
2024/01/27 00:51:29;;;;;;;30.80;4.17;;;;;;;;;;7325191;19;20418;-54
2024/01/27 00:53:59;;;;;;;20.30;3.60;;;;;;;;;;7346268;19;20452;-52
2024/01/27 00:56:28;;;;;;;16.27;3.93;;;;;;;;;;7324490;19;20434;-51
2024/01/27 00:58:57;;;;;;;11.67;1.80;;;;;;;;;;7347197;19;20456;-51
2024/01/27 01:01:27;;;;;;;37.53;8.70;;;;;;;;;;7323120;19;20438;-51
2024/01/27 01:03:56;;;;;;;15.70;3.43;;;;;;;;;;7344593;19;20428;-55
2024/01/27 01:06:28;;;;;;;27.77;3.87;;;;;;;;;;7323453;19;20422;-55
2024/01/27 01:08:58;;;;;;;17.50;4.00;;;;;;;;;;7347289;19;20525;-52
2024/01/27 01:11:27;;;;;;;34.30;7.93;;;;;;;;;;7324498;19;20453;-51
2024/01/27 01:13:57;;;;;;;34.53;7.53;;;;;;;;;;7346305;19;20433;-54
2024/01/27 01:16:26;;;;;;;16.07;3.10;;;;;;;;;;7324389;19;20426;-51
2024/01/27 01:18:56;;;;;;;30.80;3.37;;;;;;;;;;7347011;19;20507;-54
2024/01/27 01:21:25;;;;;;;15.57;3.13;;;;;;;;;;7324089;19;20441;-53
2024/01/27 01:23:57;;;;;;;28.47;5.00;;;;;;;;;;7346356;19;20458;-51
2024/01/27 01:26:27;;;;;;;35.63;6.07;;;;;;;;;;7324132;19;20983;-55
2024/01/27 01:28:56;;;;;;;20.83;3.60;;;;;;;;;;7343691;19;20431;-53
2024/01/27 01:31:26;;;;;;;26.97;4.00;;;;;;;;;;7323898;19;20450;-52
2024/01/27 01:33:55;;;;;;;30.93;6.30;;;;;;;;;;7344513;19;20767;-53
2024/01/27 01:36:25;;;;;;;34.23;3.60;;;;;;;;;;7323021;19;20434;-52
2024/01/27 01:38:54;;;;;;;34.33;3.20;;;;;;;;;;7345553;19;20421;-55
2024/01/27 01:41:26;;;;;;;17.33;4.03;;;;;;;;;;7323722;19;20434;-56
2024/01/27 01:43:56;;;;;;;22.40;4.67;;;;;;;;;;7345715;19;20433;-53
2024/01/27 01:46:26;;;;;;;22.73;4.30;;;;;;;;;;7323191;19;20514;-52
2024/01/27 01:48:55;;;;;;;29.63;3.63;;;;;;;;;;7345755;19;20426;-53
2024/01/27 01:51:25;;;;;;;24.03;4.50;;;;;;;;;;7322203;19;21311;-54
2024/01/27 01:53:57;;;;;;;40.63;8.13;;;;;;;;;;7346420;19;20461;-53
2024/01/27 01:56:29;;;;;;;25.80;3.77;;;;;;;;;;7317981;19;20976;-49
2024/01/27 01:58:58;;;;;;;40.07;12.40;;;;;;;;;;7348913;19;20457;-54
2024/01/27 02:01:28;;;;;;;30.60;6.13;;;;;;;;;;7329638;19;20529;-57
2024/01/27 02:03:58;;;;;;;19.00;3.60;;;;;;;;;;7345273;19;20432;-36
2024/01/27 02:06:27;;;;;;;21.80;3.80;;;;;;;;;;7327739;19;20429;-38
2024/01/27 02:08:57;;;;;;;31.03;7.00;;;;;;;;;;7352652;19;20432;-37
2024/01/27 02:11:26;;;;;;;24.70;3.40;;;;;;;;;;7330223;19;20437;-39
2024/01/27 02:13:56;;;;;;;46.93;7.13;;;;;;;;;;7350258;19;20429;-37
2024/01/27 02:16:25;;;;;;;18.40;3.63;;;;;;;;;;7328404;19;20418;-38
2024/01/27 02:18:55;;;;;;;21.23;3.33;;;;;;;;;;7352218;19;20428;-38
2024/01/27 02:21:24;;;;;;;21.50;3.60;;;;;;;;;;7329847;19;20425;-37
2024/01/27 02:23:54;;;;;;;37.43;9.90;;;;;;;;;;7350776;19;20429;-36
2024/01/27 02:26:26;;;;;;;24.27;5.80;;;;;;;;;;7329051;19;20796;-38
2024/01/27 02:28:55;;;;;;;18.83;2.20;;;;;;;;;;7351725;19;20881;-37
2024/01/27 02:31:24;;;;;;;21.27;3.47;;;;;;;;;;7330061;19;20433;-37
2024/01/27 02:33:54;;;;;;;24.90;4.20;;;;;;;;;;7348914;19;20421;-39
2024/01/27 02:36:23;;;;;;;28.63;4.03;;;;;;;;;;7327764;19;20430;-38
2024/01/27 02:38:53;;;;;;;36.17;4.80;;;;;;;;;;7350851;19;20423;-36
2024/01/27 02:41:22;;;;;;;30.73;7.03;;;;;;;;;;7329091;19;20425;-41
2024/01/27 02:43:54;;;;;;;34.20;6.33;;;;;;;;;;7350113;19;20986;-37
2024/01/27 02:46:24;;;;;;;28.53;4.20;;;;;;;;;;7328935;19;20499;-38
2024/01/27 02:48:53;;;;;;;24.57;3.03;;;;;;;;;;7350780;19;20458;-37
2024/01/27 02:51:23;;;;;;;35.23;5.43;;;;;;;;;;7329577;19;20468;-37
2024/01/27 02:53:52;;;;;;;19.90;2.90;;;;;;;;;;7350197;19;20431;-36
2024/01/27 02:56:22;;;;;;;24.93;2.57;;;;;;;;;;7323621;19;20451;-37
2024/01/27 02:58:51;;;;;;;31.13;3.60;;;;;;;;;;7351443;19;20428;-36
2024/01/27 03:01:23;;;;;;;21.60;3.73;;;;;;;;;;7328757;19;20428;-37
2024/01/27 03:03:53;;;;;;;46.73;3.47;;;;;;;;;;7350086;19;20501;-38
2024/01/27 03:06:22;;;;;;;27.60;4.90;;;;;;;;;;7327675;19;20516;-37
2024/01/27 03:08:51;;;;;;;25.33;4.00;;;;;;;;;;7349879;19;20421;-38
2024/01/27 03:11:21;;;;;;;21.03;3.30;;;;;;;;;;7328687;19;20429;-37
2024/01/27 03:13:50;;;;;;;29.77;5.97;;;;;;;;;;7349545;19;20425;-38
2024/01/27 03:16:20;;;;;;;49.30;11.87;;;;;;;;;;7327162;19;20429;-38
2024/01/27 03:18:52;;;;;;;36.33;6.43;;;;;;;;;;7350663;19;20502;-36
2024/01/27 03:21:21;;;;;;;28.77;6.50;;;;;;;;;;7328477;19;20429;-37
2024/01/27 03:23:53;;;;;;;32.33;4.80;;;;;;;;;;7348972;19;20422;-36
2024/01/27 03:26:23;;;;;;;27.57;3.40;;;;;;;;;;7327766;19;20429;-38
2024/01/27 03:28:52;;;;;;;28.67;3.10;;;;;;;;;;7349264;19;20419;-38
2024/01/27 03:31:22;;;;;;;17.90;3.80;;;;;;;;;;7328418;19;21053;-38
2024/01/27 03:33:54;;;;;;;19.33;3.00;;;;;;;;;;7347577;19;20493;-36
2024/01/27 03:36:23;;;;;;;32.13;4.73;;;;;;;;;;7326785;19;20434;-37
2024/01/27 03:38:53;;;;;;;26.33;3.50;;;;;;;;;;7349526;19;20513;-38
2024/01/27 03:41:22;;;;;;;27.43;3.47;;;;;;;;;;7327584;19;20429;-38
2024/01/27 03:43:51;;;;;;;26.07;3.67;;;;;;;;;;7348414;19;21032;-38
2024/01/27 03:46:21;;;;;;;31.37;2.83;;;;;;;;;;7327957;19;20429;-38
2024/01/27 03:48:50;;;;;;;33.10;5.53;;;;;;;;;;7348510;19;20782;-36
2024/01/27 03:51:23;;;;;;;31.17;3.23;;;;;;;;;;7327645;19;21112;-37
2024/01/27 03:53:52;;;;;;;22.80;5.70;;;;;;;;;;7348555;19;20785;-38
2024/01/27 03:56:22;;;;;;;18.83;4.57;;;;;;;;;;7326017;19;20437;-38
2024/01/27 03:58:51;;;;;;;23.80;4.93;;;;;;;;;;7349161;19;20432;-36
2024/01/27 04:01:20;;;;;;;31.93;4.30;;;;;;;;;;7327245;19;20957;-37
2024/01/27 04:03:50;;;;;;;17.40;3.90;;;;;;;;;;7342411;19;20431;-36
2024/01/27 04:06:19;;;;;;;25.93;3.17;;;;;;;;;;7326495;19;20422;-37
2024/01/27 04:08:51;;;;;;;28.63;4.50;;;;;;;;;;7348614;19;20433;-37
2024/01/27 04:11:21;;;;;;;22.97;3.70;;;;;;;;;;7326747;19;20944;-37
2024/01/27 04:13:51;;;;;;;23.37;3.30;;;;;;;;;;7348166;19;20454;-36
2024/01/27 04:16:21;;;;;;;25.80;3.50;;;;;;;;;;7325569;19;20441;-37
2024/01/27 04:18:50;;;;;;;30.57;5.17;;;;;;;;;;7348324;19;20524;-36
2024/01/27 04:21:20;;;;;;;37.50;5.87;;;;;;;;;;7324858;19;20677;-36
2024/01/27 04:23:52;;;;;;;49.60;8.83;;;;;;;;;;7347086;19;20855;-37
2024/01/27 04:26:21;;;;;;;35.77;4.97;;;;;;;;;;7325112;19;20449;-39
2024/01/27 04:28:51;;;;;;;36.93;8.40;;;;;;;;;;7348374;19;20446;-37
2024/01/27 04:31:20;;;;;;;30.63;4.43;;;;;;;;;;7326054;19;20459;-37
2024/01/27 04:33:52;;;;;;;32.30;3.33;;;;;;;;;;7345911;19;20504;-37
2024/01/27 04:36:27;;;;;;;20.33;4.40;;;;;;;;;;7324744;19;20460;-38
2024/01/27 04:39:00;;;;;;;23.73;4.93;;;;;;;;;;7347907;19;21048;-41
2024/01/27 04:41:29;;;;;;;36.90;8.70;;;;;;;;;;7326636;19;20422;-37
2024/01/27 04:43:59;;;;;;;24.37;5.13;;;;;;;;;;7346895;19;20429;-37
2024/01/27 04:46:28;;;;;;;60.73;12.93;;;;;;;;;;7325510;19;20457;-38
2024/01/27 04:48:58;;;;;;;17.70;3.43;;;;;;;;;;7347734;19;20501;-37
2024/01/27 04:51:27;;;;;;;26.63;2.80;;;;;;;;;;7325460;19;20496;-37
2024/01/27 04:53:59;;;;;;;26.83;4.10;;;;;;;;;;7346939;19;20426;-38
2024/01/27 04:56:29;;;;;;;18.27;3.30;;;;;;;;;;7324812;19;20467;-37
2024/01/27 04:58:58;;;;;;;21.83;3.33;;;;;;;;;;7347321;19;20434;-39
2024/01/27 05:01:27;;;;;;;27.97;4.03;;;;;;;;;;7324710;19;20846;-38
2024/01/27 05:03:57;;;;;;;31.03;7.00;;;;;;;;;;7345777;19;20422;-37
2024/01/27 05:06:26;;;;;;;17.83;2.80;;;;;;;;;;7324467;19;20464;-37
2024/01/27 05:08:56;;;;;;;20.13;4.20;;;;;;;;;;7346566;19;20458;-39
2024/01/27 05:11:32;;;;;;;21.20;5.60;;;;;;;;;;7324925;19;20428;-43
2024/01/27 05:14:01;;;;;;;29.33;4.37;;;;;;;;;;7345762;19;20431;-37
2024/01/27 05:16:31;;;;;;;17.90;2.60;;;;;;;;;;7324076;19;21072;-38
2024/01/27 05:19:01;;;;;;;42.03;9.20;;;;;;;;;;7346672;19;20513;-38
2024/01/27 05:21:31;;;;;;;21.53;4.57;;;;;;;;;;7324989;19;20433;-37
2024/01/27 05:24:00;;;;;;;33.63;5.50;;;;;;;;;;7346106;19;20450;-37
2024/01/27 05:26:32;;;;;;;19.63;2.43;;;;;;;;;;7324353;19;20429;-37
2024/01/27 05:29:01;;;;;;;21.50;2.90;;;;;;;;;;7346544;19;20997;-38
2024/01/27 05:31:31;;;;;;;28.90;3.50;;;;;;;;;;7324357;19;20432;-37
2024/01/27 05:34:01;;;;;;;19.53;2.90;;;;;;;;;;7347116;19;20605;-38
2024/01/27 05:36:32;;;;;;;24.63;3.37;;;;;;;;;;7330778;19;20457;-40
2024/01/27 05:39:03;;;;;;;23.37;3.80;;;;;;;;;;7353531;19;20429;-37
2024/01/27 05:41:35;;;;;;;23.10;3.20;;;;;;;;;;7331768;19;20804;-37
2024/01/27 05:44:05;;;;;;;32.03;6.80;;;;;;;;;;7353171;19;20511;-36
2024/01/27 05:46:34;;;;;;;23.27;3.00;;;;;;;;;;7330719;19;20433;-36
2024/01/27 05:49:03;;;;;;;29.63;4.20;;;;;;;;;;7352802;19;20987;-37
2024/01/27 05:51:33;;;;;;;18.77;3.83;;;;;;;;;;7329925;19;20856;-36
2024/01/27 05:54:03;;;;;;;17.80;2.73;;;;;;;;;;7351997;19;20426;-38
2024/01/27 05:56:38;;;;;;;43.53;10.47;;;;;;;;;;7331241;19;20433;-38
2024/01/27 05:59:07;;;;;;;27.43;3.50;;;;;;;;;;7352746;19;20471;-39
2024/01/27 06:01:37;;;;;;;9.67;2.23;;;;;;;;;;7330955;19;20378;-38
2024/01/27 06:04:06;;;;;;;37.73;7.50;;;;;;;;;;7351915;19;20425;-38
2024/01/27 06:06:36;;;;;;;19.87;4.13;;;;;;;;;;7329675;19;20390;-38
2024/01/27 06:09:06;;;;;;;32.10;7.10;;;;;;;;;;7352992;19;20429;-37
2024/01/27 06:11:38;;;;;;;27.17;3.47;;;;;;;;;;7331346;19;20419;-36
2024/01/27 06:14:07;;;;;;;28.33;4.53;;;;;;;;;;7352020;19;20429;-39
2024/01/27 06:16:37;;;;;;;48.83;7.20;;;;;;;;;;7330949;19;20446;-36
2024/01/27 06:19:06;;;;;;;25.27;4.50;;;;;;;;;;7352549;19;20866;-37
2024/01/27 06:21:36;;;;;;;34.47;6.10;;;;;;;;;;7330085;19;20390;-36
2024/01/27 06:24:06;;;;;;;32.70;9.83;;;;;;;;;;7351945;19;20462;-38
2024/01/27 06:26:38;;;;;;;20.73;4.10;;;;;;;;;;7329378;19;20432;-36
2024/01/27 06:29:07;;;;;;;37.70;7.33;;;;;;;;;;7352236;19;20427;-37
2024/01/27 06:31:36;;;;;;;31.70;4.97;;;;;;;;;;7330666;19;20389;-38
2024/01/27 06:34:06;;;;;;;33.63;6.90;;;;;;;;;;7349549;19;20495;-38
2024/01/27 06:36:35;;;;;;;22.27;5.33;;;;;;;;;;7328772;19;20453;-39
2024/01/27 06:39:05;;;;;;;34.57;8.83;;;;;;;;;;7351517;19;21018;-36
2024/01/27 06:41:34;;;;;;;35.70;6.70;;;;;;;;;;7329685;19;20434;-36
2024/01/27 06:44:07;;;;;;;30.13;4.20;;;;;;;;;;7345860;19;20438;-37
2024/01/27 06:46:36;;;;;;;31.17;4.93;;;;;;;;;;7328788;19;21480;-38
2024/01/27 06:49:06;;;;;;;14.10;3.40;;;;;;;;;;7351810;19;21178;-47
2024/01/27 06:51:35;;;;;;;15.63;3.00;;;;;;;;;;7329271;19;21755;-37
2024/01/27 06:54:05;;;;;;;65.40;17.60;;;;;;;;;;7349840;19;20422;-38
2024/01/27 06:56:34;;;;;;;18.27;3.53;;;;;;;;;;7325809;19;20439;-36
2024/01/27 06:59:06;;;;;;;39.07;7.47;;;;;;;;;;7347226;19;20482;-36
2024/01/27 07:01:36;;;;;;;23.30;3.60;;;;;;;;;;7326715;19;20403;-37
2024/01/27 07:04:05;;;;;;;44.90;7.10;;;;;;;;;;7349008;19;20434;-38
2024/01/27 07:06:35;;;;;;;29.07;6.30;;;;;;;;;;7326518;19;20437;-38
2024/01/27 07:09:04;;;;;;;53.93;14.13;;;;;;;;;;7349257;19;20496;-37
2024/01/27 07:11:34;;;;;;;22.03;5.33;;;;;;;;;;7327156;19;20852;-36
2024/01/27 07:14:03;;;;;;;32.40;6.97;;;;;;;;;;7349378;19;20464;-37
2024/01/27 07:16:35;;;;;;;36.40;4.80;;;;;;;;;;7327228;19;20433;-37
2024/01/27 07:19:05;;;;;;;25.27;4.83;;;;;;;;;;7350185;19;20434;-36
2024/01/27 07:21:34;;;;;;;22.73;3.70;;;;;;;;;;7328403;19;20433;-36
2024/01/27 07:24:04;;;;;;;27.30;4.03;;;;;;;;;;7350001;19;20422;-37
2024/01/27 07:26:33;;;;;;;30.23;6.23;;;;;;;;;;7327378;19;20477;-39
2024/01/27 07:29:02;;;;;;;9.80;2.73;;;;;;;;;;7347771;19;20906;-37
2024/01/27 07:31:32;;;;;;;15.17;3.47;;;;;;;;;;7324534;19;20853;-38
2024/01/27 07:34:06;;;;;;;20.97;2.90;;;;;;;;;;7347442;19;20821;-38
2024/01/27 07:36:35;;;;;;;22.53;3.80;;;;;;;;;;7324651;19;20412;-38
2024/01/27 07:39:05;;;;;;;13.00;4.47;;;;;;;;;;7349845;19;20505;-36
2024/01/27 07:41:35;;;;;;;19.43;3.03;;;;;;;;;;7327833;19;20799;-37
2024/01/27 07:44:14;;;;;;;40.07;6.43;;;;;;;;;;7347423;19;20558;-36
2024/01/27 07:46:44;;;;;;;16.87;2.60;;;;;;;;;;7327679;19;20501;-37
2024/01/27 07:49:16;;;;;;;25.30;2.90;;;;;;;;;;7349244;19;20500;-37
2024/01/27 07:51:46;;;;;;;19.33;3.47;;;;;;;;;;7326995;19;20443;-37
2024/01/27 07:54:16;;;;;;;14.50;3.80;;;;;;;;;;7343339;19;20791;-33
2024/01/27 07:56:45;;;;;;;3.60;1.40;;;;;;;;;;7346385;19;20421;-39
2024/01/27 07:59:16;;;;;;;33.17;5.33;;;;;;;;;;7348754;19;20993;-39
2024/01/27 08:01:45;;;;;;;29.57;6.03;;;;;;;;;;7325858;19;20436;-38
2024/01/27 08:04:17;;;;;;;21.43;3.10;;;;;;;;;;7344531;19;20431;-40
2024/01/27 08:06:52;;;;;;;19.83;4.07;;;;;;;;;;7326689;19;20489;-38
2024/01/27 08:09:22;;;;;;;15.50;3.00;;;;;;;;;;7323637;19;20408;-36
2024/01/27 08:11:52;;;;;;;12.73;2.83;;;;;;;;;;7347707;19;20821;-37
2024/01/27 08:14:22;;;;;;;9.53;1.80;;;;;;;;;;7324805;19;20433;-36
2024/01/27 08:16:52;;;;;;;16.77;3.97;;;;;;;;;;7346882;19;21003;-38
2024/01/27 08:19:29;;;;;;;19.37;3.43;;;;;;;;;;7326332;19;20441;-36
2024/01/27 08:21:58;;;;;;;6.60;2.23;;;;;;;;;;7347689;19;20980;-38
2024/01/27 08:24:28;;;;;;;31.53;3.37;;;;;;;;;;7322319;19;20411;-38
2024/01/27 08:26:57;;;;;;;198.40;50.30;;;;;;;;;;7346363;19;20433;-38
2024/01/27 08:29:27;;;;;;;24.93;3.70;;;;;;;;;;7325112;19;20538;-38
2024/01/27 08:31:56;;;;;;;17.07;3.50;;;;;;;;;;7347236;19;20839;-39
2024/01/27 08:34:28;;;;;;;106.13;28.13;;;;;;;;;;7321898;19;20438;-38
2024/01/27 08:37:04;;;;;;;29.97;2.83;;;;;;;;;;7346306;19;20428;-38
2024/01/27 08:39:33;;;;;;;14.20;2.37;;;;;;;;;;7323769;19;20436;-36
2024/01/27 08:42:03;;;;;;;21.17;3.47;;;;;;;;;;7347240;19;20421;-38
2024/01/27 08:44:32;;;;;;;17.10;2.57;;;;;;;;;;7324692;19;20428;-40
2024/01/27 08:47:02;;;;;;;16.67;2.70;;;;;;;;;;7346643;19;20432;-38
2024/01/27 08:49:37;;;;;;;22.87;2.40;;;;;;;;;;7325454;19;20436;-35
2024/01/27 08:52:08;;;;;;;14.93;3.47;;;;;;;;;;7346704;19;20539;-38
2024/01/27 08:54:37;;;;;;;18.00;3.43;;;;;;;;;;7324658;19;20401;-37
2024/01/27 08:57:07;;;;;;;25.60;3.37;;;;;;;;;;7343413;19;20437;-37
2024/01/27 08:59:36;;;;;;;20.67;3.17;;;;;;;;;;7323982;19;20465;-37
2024/01/27 09:02:08;;;;;;;23.33;5.30;;;;;;;;;;7345678;19;20474;-38
2024/01/27 09:04:41;;;;;;;26.70;5.40;;;;;;;;;;7322305;19;20413;-37
2024/01/27 09:07:10;;;;;;;18.00;5.07;;;;;;;;;;7343345;19;20447;-36
2024/01/27 09:09:40;;;;;;;20.00;3.40;;;;;;;;;;7318749;19;20425;-36
2024/01/27 09:12:10;;;;;;;24.50;3.30;;;;;;;;;;7346028;19;20421;-37
2024/01/27 09:14:40;;;;;;;42.00;11.63;;;;;;;;;;7323384;19;21019;-37
2024/01/27 09:17:10;;;;;;;19.60;4.50;;;;;;;;;;7346352;19;20437;-38
2024/01/27 09:19:43;;;;;;;12.23;2.80;;;;;;;;;;7321305;19;20945;-39
2024/01/27 09:22:12;;;;;;;13.47;2.80;;;;;;;;;;7346028;19;20422;-40
2024/01/27 09:24:42;;;;;;;16.83;3.53;;;;;;;;;;7324293;19;20496;-38
2024/01/27 09:27:11;;;;;;;29.40;7.90;;;;;;;;;;7345244;19;20425;-38
2024/01/27 09:29:41;;;;;;;24.23;4.13;;;;;;;;;;7325044;19;20438;-38
2024/01/27 09:32:11;;;;;;;15.30;3.40;;;;;;;;;;7346234;19;20431;-38
2024/01/27 09:34:43;;;;;;;24.07;3.77;;;;;;;;;;7322150;19;20416;-37
2024/01/27 09:37:12;;;;;;;13.40;3.23;;;;;;;;;;7345746;19;20425;-39
2024/01/27 09:39:42;;;;;;;22.13;5.10;;;;;;;;;;7324899;19;20404;-38
2024/01/27 09:42:15;;;;;;;10.20;1.70;;;;;;;;;;7345758;19;20433;-37
2024/01/27 09:44:46;;;;;;;54.00;16.93;;;;;;;;;;7321606;19;20450;-38
2024/01/27 09:47:16;;;;;;;16.97;4.30;;;;;;;;;;7345301;19;20495;-38
2024/01/27 09:49:48;;;;;;;10.67;1.93;;;;;;;;;;7324774;19;20430;-37
2024/01/27 09:52:17;;;;;;;26.07;4.07;;;;;;;;;;7332324;19;21281;-37
2024/01/27 09:54:46;;;;;;;14.53;2.10;;;;;;;;;;7344958;19;20429;-38
2024/01/27 09:57:18;;;;;;;20.47;4.20;;;;;;;;;;7341748;19;20437;-34
2024/01/27 09:59:48;;;;;;;24.97;4.63;;;;;;;;;;7345933;19;20436;-35
2024/01/27 10:02:18;;;;;;;15.80;2.73;;;;;;;;;;7326365;19;20416;-38
2024/01/27 10:04:50;;;;;;;14.70;2.50;;;;;;;;;;7344668;19;21021;-38
2024/01/27 10:07:20;;;;;;;13.40;2.43;;;;;;;;;;7321606;19;20513;-38
2024/01/27 10:09:51;;;;;;;18.57;2.93;;;;;;;;;;7341816;19;20424;-37
2024/01/27 10:12:23;;;;;;;6.77;1.60;;;;;;;;;;7322333;19;20442;-37
2024/01/27 10:14:53;;;;;;;25.43;2.93;;;;;;;;;;7343841;19;20433;-40
2024/01/27 10:17:23;;;;;;;12.83;2.80;;;;;;;;;;7321904;19;20449;-41
2024/01/27 10:20:04;;;;;;;9.77;2.20;;;;;;;;;;7345543;19;20518;-37
2024/01/27 10:22:39;;;;;;;16.27;2.67;;;;;;;;;;7329491;19;20832;-37
2024/01/27 10:25:09;;;;;;;25.43;5.83;;;;;;;;;;7351987;19;20441;-40
2024/01/27 10:27:38;;;;;;;14.40;3.30;;;;;;;;;;7328656;19;20421;-39
2024/01/27 10:30:17;;;;;;;26.97;7.90;;;;;;;;;;7351961;19;20521;-38
2024/01/27 10:32:57;;;;;;;22.07;4.27;;;;;;;;;;7331258;19;20844;-40
2024/01/27 10:35:30;;;;;;;7.63;2.53;;;;;;;;;;7327480;19;20949;-41
2024/01/27 10:37:59;;;;;;;19.47;2.60;;;;;;;;;;7348094;19;20501;-37
2024/01/27 10:40:29;;;;;;;10.43;1.73;;;;;;;;;;7328213;19;20480;-37
2024/01/27 10:43:03;;;;;;;20.80;2.37;;;;;;;;;;7348181;19;20483;-38
2024/01/27 10:45:39;;;;;;;11.13;2.53;;;;;;;;;;7328736;19;20838;-37
2024/01/27 10:48:10;;;;;;;8.50;1.60;;;;;;;;;;7347908;19;20791;-35
2024/01/27 10:50:43;;;;;;;17.33;4.30;;;;;;;;;;7327854;19;20406;-38
2024/01/27 10:53:21;;;;;;;14.10;3.70;;;;;;;;;;7350678;19;20552;-37
2024/01/27 10:55:51;;;;;;;7.43;2.13;;;;;;;;;;7330334;19;20450;-37
2024/01/27 10:58:22;;;;;;;11.03;2.20;;;;;;;;;;7327574;19;20541;-37
2024/01/27 11:00:53;;;;;;;16.27;3.87;;;;;;;;;;7347999;19;20433;-40
2024/01/27 11:03:23;;;;;;;18.77;3.03;;;;;;;;;;7327930;19;20464;-38
2024/01/27 11:05:57;;;;;;;29.03;6.20;;;;;;;;;;7349828;19;20432;-37
2024/01/27 11:08:29;;;;;;;20.70;4.97;;;;;;;;;;7327446;19;20989;-38
2024/01/27 11:11:00;;;;;;;8.80;2.20;;;;;;;;;;7348363;19;20880;-38
2024/01/27 11:13:31;;;;;;;15.00;1.70;;;;;;;;;;7326194;19;20457;-37
2024/01/27 11:16:01;;;;;;;14.10;3.20;;;;;;;;;;7350568;19;20505;-39
2024/01/27 11:18:32;;;;;;;62.53;18.93;;;;;;;;;;7326280;19;20422;-36
2024/01/27 11:21:04;;;;;;;9.27;1.70;;;;;;;;;;7349123;19;20453;-37
2024/01/27 11:23:34;;;;;;;15.63;3.30;;;;;;;;;;7327450;19;20462;-37
2024/01/27 11:26:07;;;;;;;109.87;29.07;;;;;;;;;;7348758;19;20437;-36
2024/01/27 11:28:37;;;;;;;34.20;7.77;;;;;;;;;;7326917;19;20409;-42
2024/01/27 11:31:07;;;;;;;21.63;3.23;;;;;;;;;;7349711;19;20765;-37
2024/01/27 11:33:36;;;;;;;87.90;26.47;;;;;;;;;;7326377;19;20929;-36
2024/01/27 11:36:09;;;;;;;109.30;30.30;;;;;;;;;;7349307;19;20453;-36
2024/01/27 11:38:39;;;;;;;71.43;20.10;;;;;;;;;;7323910;19;21014;-36
2024/01/27 11:41:08;;;;;;;53.37;14.63;;;;;;;;;;7348574;19;20768;-36
2024/01/27 11:43:37;;;;;;;52.87;14.43;;;;;;;;;;7326640;19;20830;-36
2024/01/27 11:46:07;;;;;;;29.13;8.07;;;;;;;;;;7349443;19;20433;-33
2024/01/27 11:48:44;;;;;;;55.20;15.87;;;;;;;;;;7327053;19;20514;-34
2024/01/27 11:51:16;;;;;;;18.20;4.07;;;;;;;;;;7348731;19;20427;-34
2024/01/27 11:53:46;;;;;;;7.37;2.70;;;;;;;;;;7327700;19;20457;-34
2024/01/27 11:56:16;;;;;;;12.37;2.00;;;;;;;;;;7348489;19;20430;-34
2024/01/27 11:58:48;;;;;;;11.73;2.93;;;;;;;;;;7327820;19;20391;-35
2024/01/27 12:01:18;;;;;;;18.57;3.70;;;;;;;;;;7326049;19;20436;-35
2024/01/27 12:03:48;;;;;;;18.50;4.03;;;;;;;;;;7347678;19;20966;-34
2024/01/27 12:06:22;;;;;;;21.53;5.30;;;;;;;;;;7327108;19;20513;-34
2024/01/27 12:08:52;;;;;;;16.30;3.60;;;;;;;;;;7347156;19;20426;-34
2024/01/27 12:11:21;;;;;;;11.50;2.90;;;;;;;;;;7322509;19;20421;-35
2024/01/27 12:13:54;;;;;;;21.00;4.23;;;;;;;;;;7345279;19;20434;-35
2024/01/27 12:16:24;;;;;;;10.03;2.30;;;;;;;;;;7325419;19;20454;-35
2024/01/27 12:18:56;;;;;;;12.33;2.33;;;;;;;;;;7346843;19;20529;-35
2024/01/27 12:21:29;;;;;;;22.57;4.43;;;;;;;;;;7324212;19;20440;-35
2024/01/27 12:23:59;;;;;;;17.30;3.10;;;;;;;;;;7346667;19;20523;-35
2024/01/27 12:26:30;;;;;;;10.90;2.93;;;;;;;;;;7324458;19;20426;-35
2024/01/27 12:29:00;;;;;;;25.33;6.90;;;;;;;;;;7347339;19;20476;-35
2024/01/27 12:31:30;;;;;;;7.63;2.37;;;;;;;;;;7325231;19;20423;-36
2024/01/27 12:34:00;;;;;;;12.33;3.10;;;;;;;;;;7345275;19;20416;-35
2024/01/27 12:36:32;;;;;;;15.23;2.37;;;;;;;;;;7324636;19;20447;-34
2024/01/27 12:39:03;;;;;;;10.97;1.93;;;;;;;;;;7347341;19;20454;-35
2024/01/27 12:41:33;;;;;;;21.17;2.90;;;;;;;;;;7325038;19;20444;-34
2024/01/27 12:44:03;;;;;;;14.90;2.30;;;;;;;;;;7345357;19;20421;-34
2024/01/27 12:46:33;;;;;;;6.97;2.30;;;;;;;;;;7324427;19;20450;-35
2024/01/27 12:49:03;;;;;;;21.60;4.33;;;;;;;;;;7347022;19;20422;-35
2024/01/27 12:51:35;;;;;;;11.60;2.60;;;;;;;;;;7324508;19;20440;-34
2024/01/27 12:54:05;;;;;;;17.93;3.20;;;;;;;;;;7346102;19;21005;-34
2024/01/27 12:56:34;;;;;;;8.43;1.27;;;;;;;;;;7324279;19;20989;-34
2024/01/27 12:59:06;;;;;;;10.83;2.37;;;;;;;;;;7346821;19;20418;-34
2024/01/27 13:01:36;;;;;;;8.33;2.17;;;;;;;;;;7323971;19;20452;-34
2024/01/27 13:04:06;;;;;;;10.47;2.50;;;;;;;;;;7346163;19;20505;-34
2024/01/27 13:06:38;;;;;;;15.33;3.90;;;;;;;;;;7323630;19;20977;-34
2024/01/27 13:09:07;;;;;;;15.93;2.80;;;;;;;;;;7346626;19;20438;-35
2024/01/27 13:11:37;;;;;;;6.53;1.50;;;;;;;;;;7322996;19;20441;-35
2024/01/27 13:14:09;;;;;;;14.17;3.17;;;;;;;;;;7345471;19;20428;-35
2024/01/27 13:16:38;;;;;;;12.50;3.03;;;;;;;;;;7323692;19;20402;-34
2024/01/27 13:19:08;;;;;;;12.83;3.50;;;;;;;;;;7346109;19;20437;-34
2024/01/27 13:21:40;;;;;;;13.73;1.97;;;;;;;;;;7323554;19;20379;-35
2024/01/27 13:24:10;;;;;;;10.67;1.80;;;;;;;;;;7345908;19;20434;-35
2024/01/27 13:26:43;;;;;;;9.07;1.53;;;;;;;;;;7323726;19;20397;-37
2024/01/27 13:29:12;;;;;;;11.27;1.70;;;;;;;;;;7344335;19;20517;-36
2024/01/27 13:31:42;;;;;;;13.87;2.97;;;;;;;;;;7324797;19;20466;-35
2024/01/27 13:34:11;;;;;;;14.53;2.50;;;;;;;;;;7343518;19;20423;-35
2024/01/27 13:36:43;;;;;;;8.60;2.40;;;;;;;;;;7323638;19;20429;-35
2024/01/27 13:39:13;;;;;;;17.40;4.40;;;;;;;;;;7345834;19;20544;-35
2024/01/27 13:41:43;;;;;;;12.10;3.13;;;;;;;;;;7324837;19;20493;-35
2024/01/27 13:44:12;;;;;;;5.77;1.00;;;;;;;;;;7345483;19;20446;-34
2024/01/27 13:46:42;;;;;;;10.30;2.20;;;;;;;;;;7323622;19;20395;-35
2024/01/27 13:49:11;;;;;;;6.73;1.30;;;;;;;;;;7346173;19;20437;-35
2024/01/27 13:51:43;;;;;;;15.47;4.20;;;;;;;;;;7323108;19;20402;-35
2024/01/27 13:54:14;;;;;;;16.13;2.13;;;;;;;;;;7345893;19;20470;-35
2024/01/27 13:56:43;;;;;;;12.97;2.00;;;;;;;;;;7325340;19;20425;-34
2024/01/27 13:59:12;;;;;;;14.67;2.43;;;;;;;;;;7351896;19;20433;-35
2024/01/27 14:01:42;;;;;;;16.90;1.90;;;;;;;;;;7331385;19;20938;-35
2024/01/27 14:04:11;;;;;;;9.63;2.20;;;;;;;;;;7350054;19;20443;-34
2024/01/27 14:06:43;;;;;;;20.93;2.80;;;;;;;;;;7329234;19;20415;-35
2024/01/27 14:09:13;;;;;;;16.50;1.83;;;;;;;;;;7352422;19;20425;-35
2024/01/27 14:11:43;;;;;;;9.97;1.97;;;;;;;;;;7330913;19;20773;-35
2024/01/27 14:14:12;;;;;;;11.57;3.13;;;;;;;;;;7351721;19;20434;-35
2024/01/27 14:16:41;;;;;;;9.47;3.00;;;;;;;;;;7329916;19;20925;-36
2024/01/27 14:19:11;;;;;;;17.50;4.50;;;;;;;;;;7351837;19;20433;-35
2024/01/27 14:21:43;;;;;;;12.63;2.87;;;;;;;;;;7329754;19;20391;-36
2024/01/27 14:24:12;;;;;;;11.90;3.20;;;;;;;;;;7350595;19;20426;-35
2024/01/27 14:26:42;;;;;;;17.07;3.13;;;;;;;;;;7329804;19;20395;-35
2024/01/27 14:29:11;;;;;;;18.67;3.90;;;;;;;;;;7351531;19;20439;-36
2024/01/27 14:31:41;;;;;;;19.17;2.10;;;;;;;;;;7329691;19;20393;-35
2024/01/27 14:34:10;;;;;;;11.83;2.13;;;;;;;;;;7348912;19;20448;-35
2024/01/27 14:36:41;;;;;;;7.33;1.33;;;;;;;;;;7328963;19;20817;-35
2024/01/27 14:39:13;;;;;;;13.23;2.13;;;;;;;;;;7350998;19;20428;-35
2024/01/27 14:41:42;;;;;;;11.50;2.13;;;;;;;;;;7330179;19;20393;-35
2024/01/27 14:44:12;;;;;;;11.33;2.80;;;;;;;;;;7349465;19;20428;-35
2024/01/27 14:46:42;;;;;;;26.47;3.70;;;;;;;;;;7328232;19;20487;-36
2024/01/27 14:49:11;;;;;;;26.27;3.67;;;;;;;;;;7350731;19;20432;-34